Time;durP1;ratioP1;P1;durP2;ratioP2;P2;SDS_P1;SDS_P2;PMS_P1;PMS_P2;Temp;Humidity;BMP_temperature;BMP_pressure;BME280_temperature;BME280_humidity;BME280_pressure;Samples;Min_cycle;Max_cycle;Signal;HPM_P1;HPM_P2
2022/05/16 00:01:48;;;;;;;6.22;1.98;;;12.80;95.40;;;;;;4868430;29;21023;-87
2022/05/16 00:04:14;;;;;;;4.50;2.10;;;12.80;95.50;;;;;;4870458;29;20677;-76
2022/05/16 00:36:33;;;;;;;4.78;2.17;;;;;;;;;;4873171;29;20456;-85
2022/05/16 00:38:59;;;;;;;4.47;1.90;;;12.30;96.10;;;;;;4853337;29;20124;-82
2022/05/16 00:41:24;;;;;;;5.28;2.03;;;12.40;96.10;;;;;;4848368;29;20080;-79
2022/05/16 00:43:55;;;;;;;3.97;1.80;;;12.40;96.40;;;;;;4859115;29;20035;-84
2022/05/16 00:46:25;;;;;;;4.55;2.22;;;12.30;96.10;;;;;;4833093;29;20049;-89
2022/05/16 00:48:51;;;;;;;3.88;2.03;;;12.30;96.30;;;;;;4849454;29;20097;-77
2022/05/16 00:51:26;;;;;;;6.55;2.38;;;12.20;96.60;;;;;;4848010;29;20113;-78
2022/05/16 00:53:56;;;;;;;10.00;3.22;;;12.20;96.40;;;;;;4847218;29;20225;-76
2022/05/16 00:56:24;;;;;;;5.55;2.03;;;12.10;96.40;;;;;;4846598;29;20030;-75
2022/05/16 01:06:40;;;;;;;4.47;2.15;;;12.00;97.20;;;;;;5067452;23;20053;-82
2022/05/16 01:09:09;;;;;;;5.70;2.13;;;11.90;97.00;;;;;;4872962;29;20028;-76
2022/05/16 01:11:37;;;;;;;6.45;2.00;;;11.90;97.20;;;;;;4895450;29;20031;-75
2022/05/16 01:14:04;;;;;;;3.80;1.90;;;11.80;97.30;;;;;;4896883;29;20103;-74
2022/05/16 01:16:29;;;;;;;5.28;1.45;;;11.80;97.20;;;;;;4896029;29;20021;-74
2022/05/16 01:19:02;;;;;;;2.83;1.50;;;11.80;97.50;;;;;;4897682;29;20049;-83
2022/05/16 01:21:40;;;;;;;7.28;2.83;;;11.70;97.40;;;;;;4879146;29;20021;-82
2022/05/16 01:24:14;;;;;;;3.72;2.30;;;11.70;97.40;;;;;;4881357;29;20021;-77
2022/05/16 01:26:41;;;;;;;4.97;1.98;;;11.70;97.70;;;;;;4880697;29;20040;-77
2022/05/16 01:29:09;;;;;;;4.30;1.75;;;11.70;97.70;;;;;;4898657;29;20030;-75
2022/05/16 01:31:35;;;;;;;7.15;2.42;;;11.70;97.30;;;;;;4883011;29;20009;-78
2022/05/16 01:34:01;;;;;;;4.35;2.33;;;11.70;97.50;;;;;;4899365;29;20040;-74
2022/05/16 01:36:32;;;;;;;4.30;1.55;;;11.60;97.70;;;;;;4896095;29;20027;-74
2022/05/16 01:38:58;;;;;;;8.73;2.17;;;11.50;98.20;;;;;;4894422;29;20021;-80
2022/05/16 01:41:26;;;;;;;4.90;2.17;;;11.50;98.10;;;;;;4895034;29;20096;-77
2022/05/16 01:43:55;;;;;;;4.43;2.03;;;11.40;98.20;;;;;;4897220;29;20009;-80
2022/05/16 01:46:53;;;;;;;5.65;2.08;;;11.50;98.20;;;;;;4897352;29;20053;-76
2022/05/16 01:49:19;;;;;;;2.85;1.50;;;11.40;98.20;;;;;;4897686;29;20037;-75
2022/05/16 01:51:44;;;;;;;3.10;1.50;;;11.40;98.30;;;;;;4897281;29;20045;-75
2022/05/16 01:54:10;;;;;;;9.88;2.17;;;11.40;98.30;;;;;;4897852;29;20041;-76
2022/05/16 01:56:37;;;;;;;4.60;1.67;;;11.40;98.20;;;;;;4895728;29;20038;-74
2022/05/16 01:59:04;;;;;;;3.50;1.58;;;11.40;98.40;;;;;;4880468;29;20040;-77
2022/05/16 02:01:30;;;;;;;3.92;2.22;;;11.40;98.20;;;;;;4878773;29;20029;-85
2022/05/16 02:03:56;;;;;;;4.32;2.15;;;11.40;98.30;;;;;;4883755;29;20025;-79
2022/05/16 02:06:22;;;;;;;3.90;1.50;;;11.40;98.20;;;;;;4880854;29;20059;-78
2022/05/16 02:08:49;;;;;;;5.85;1.77;;;11.40;98.00;;;;;;4877730;29;20025;-81
2022/05/16 02:11:15;;;;;;;3.83;1.58;;;11.40;97.90;;;;;;4873538;29;20029;-83
2022/05/16 02:13:42;;;;;;;6.38;2.70;;;11.40;98.00;;;;;;4892377;29;20044;-75
2022/05/16 02:16:09;;;;;;;6.90;2.80;;;11.30;98.10;;;;;;4863000;29;20029;-81
2022/05/16 02:18:41;;;;;;;6.75;2.35;;;11.40;97.90;;;;;;4901269;29;20064;-77
2022/05/16 02:26:36;;;;;;;5.88;1.95;;;11.30;98.20;;;;;;4900101;29;20040;-76
2022/05/16 02:29:05;;;;;;;3.78;2.33;;;11.20;98.20;;;;;;4885361;29;20048;-75
2022/05/16 02:31:33;;;;;;;3.97;2.17;;;11.20;98.30;;;;;;4898313;29;20036;-75
2022/05/16 02:33:59;;;;;;;2.92;1.50;;;11.20;98.50;;;;;;4902764;29;20009;-75
2022/05/16 02:36:27;;;;;;;3.13;1.40;;;11.20;98.60;;;;;;4901449;29;20085;-76
2022/05/16 02:38:53;;;;;;;5.57;2.20;;;11.10;98.70;;;;;;4886573;29;20105;-76
2022/05/16 02:41:18;;;;;;;7.78;3.28;;;11.10;98.60;;;;;;4901847;29;20013;-76
2022/05/16 02:43:44;;;;;;;6.55;2.35;;;11.10;98.80;;;;;;4900783;29;20002;-75
2022/05/16 02:46:10;;;;;;;5.22;2.50;;;11.10;98.40;;;;;;4901486;29;20060;-75
2022/05/16 02:48:38;;;;;;;4.05;2.15;;;11.10;98.50;;;;;;4902285;29;20017;-75
2022/05/16 02:51:04;;;;;;;4.85;1.90;;;11.10;98.40;;;;;;4878369;29;20017;-75
2022/05/16 02:53:30;;;;;;;5.70;1.83;;;11.00;99.00;;;;;;4878135;29;20588;-75
2022/05/16 02:55:56;;;;;;;3.40;1.75;;;11.00;99.30;;;;;;4873040;29;20017;-76
2022/05/16 03:41:39;;;;;;;8.55;2.03;;;10.50;99.90;;;;;;4827271;29;20113;-75
2022/05/16 03:44:05;;;;;;;4.07;2.03;;;10.50;99.90;;;;;;4827011;29;20004;-75
2022/05/16 03:46:31;;;;;;;4.28;1.83;;;10.50;99.90;;;;;;4845873;29;20041;-75
2022/05/16 03:48:57;;;;;;;5.40;2.17;;;10.50;99.90;;;;;;4846635;29;20073;-76
2022/05/16 03:51:23;;;;;;;6.68;2.53;;;10.50;99.90;;;;;;4845051;29;20010;-74
2022/05/16 03:53:49;;;;;;;5.45;2.20;;;10.50;99.90;;;;;;4846696;29;20015;-79
2022/05/16 03:56:28;;;;;;;4.95;2.22;;;10.60;99.90;;;;;;4845426;29;20034;-75
2022/05/16 03:59:22;;;;;;;7.00;2.25;;;10.40;99.90;;;;;;4846598;29;20051;-75
2022/05/16 04:01:49;;;;;;;2.72;1.42;;;10.40;99.90;;;;;;4844020;29;20015;-75
2022/05/16 04:04:18;;;;;;;6.13;1.75;;;10.40;99.90;;;;;;4842598;29;20034;-77
2022/05/16 04:06:45;;;;;;;4.20;1.70;;;10.40;99.90;;;;;;4845302;29;20033;-77
2022/05/16 04:09:11;;;;;;;3.28;1.75;;;10.50;99.90;;;;;;4860909;24;20048;-75
2022/05/16 04:11:40;;;;;;;5.38;2.28;;;10.50;99.90;;;;;;4898129;29;20012;-77
2022/05/16 04:14:10;;;;;;;3.35;1.77;;;10.40;99.90;;;;;;4899725;29;20092;-75
2022/05/16 04:16:37;;;;;;;4.55;2.08;;;10.50;99.90;;;;;;4870957;29;20049;-75
2022/05/16 04:19:06;;;;;;;4.97;2.05;;;10.60;99.90;;;;;;4921386;29;20084;-75
2022/05/16 04:21:32;;;;;;;4.82;2.17;;;10.60;99.90;;;;;;4905129;29;20005;-74
2022/05/16 04:23:58;;;;;;;7.88;2.35;;;10.60;99.70;;;;;;4903342;29;20088;-75
2022/05/16 04:26:24;;;;;;;5.68;3.10;;;10.60;99.90;;;;;;4919144;29;20017;-74
2022/05/16 04:28:49;;;;;;;4.47;2.33;;;10.70;99.70;;;;;;4915622;29;20064;-74
2022/05/16 04:31:15;;;;;;;3.35;1.77;;;10.70;99.80;;;;;;4898919;29;20044;-74
2022/05/16 04:33:50;;;;;;;6.35;2.25;;;10.80;99.90;;;;;;4914082;29;20040;-74
2022/05/16 04:36:16;;;;;;;7.57;2.33;;;10.80;99.60;;;;;;4912145;29;20020;-76
2022/05/16 04:38:57;;;;;;;3.78;1.55;;;10.80;99.50;;;;;;4872603;29;20040;-75
2022/05/16 05:23:00;;;;;;;6.45;2.25;;;12.40;97.00;;;;;;5259011;23;20056;-88
2022/05/16 05:25:27;;;;;;;5.65;1.55;;;12.60;96.80;;;;;;4886247;29;20032;-90
2022/05/16 05:27:53;;;;;;;5.53;1.73;;;12.70;96.10;;;;;;4903383;29;20111;-91
2022/05/16 05:30:25;;;;;;;4.18;1.80;;;12.90;96.10;;;;;;4886792;29;20020;-82
2022/05/16 05:32:54;;;;;;;5.38;2.53;;;13.00;96.10;;;;;;4902700;29;20203;-86
2022/05/16 05:35:20;;;;;;;3.83;2.35;;;13.00;96.10;;;;;;4902801;29;20048;-80
2022/05/16 05:37:46;;;;;;;4.22;2.50;;;13.10;96.00;;;;;;4902035;29;20036;-76
2022/05/16 06:05:45;;;;;;;5.78;2.97;;;14.80;93.00;;;;;;5459899;23;20101;-76
2022/05/16 06:08:11;;;;;;;6.47;2.75;;;14.80;93.90;;;;;;4869343;29;20048;-86
2022/05/16 06:10:37;;;;;;;5.35;2.72;;;14.90;93.20;;;;;;4869936;29;20032;-83
2022/05/16 06:13:04;;;;;;;9.82;3.30;;;14.90;92.50;;;;;;4870880;29;20036;-81
2022/05/16 06:15:30;;;;;;;5.15;2.38;;;14.90;92.50;;;;;;4873353;29;20043;-87
2022/05/16 06:17:55;;;;;;;6.70;2.40;;;15.10;92.40;;;;;;4888369;29;20333;-77
2022/05/16 06:20:21;;;;;;;5.00;2.55;;;15.30;92.00;;;;;;4889690;29;20040;-80
2022/05/16 06:22:47;;;;;;;7.07;3.17;;;15.40;91.60;;;;;;4867544;29;20687;-79
2022/05/16 06:25:31;;;;;;;8.13;3.33;;;15.40;91.60;;;;;;4866228;29;20805;-91
2022/05/16 06:27:59;;;;;;;;;;;15.70;91.40;;;;;;4866017;29;20049;-84
2022/05/16 06:30:26;;;;;;;8.40;3.33;;;15.90;91.10;;;;;;4848844;29;20559;-84
2022/05/16 06:32:57;;;;;;;6.00;3.15;;;16.10;91.20;;;;;;4864286;29;20056;-89
2022/05/16 06:35:23;;;;;;;6.80;3.40;;;17.10;90.90;;;;;;4848896;29;20193;-78
2022/05/16 06:37:50;;;;;;;7.03;3.35;;;16.40;90.00;;;;;;4864237;29;20603;-86
2022/05/16 06:40:17;;;;;;;6.82;3.38;;;16.50;89.80;;;;;;4865570;29;20029;-84
2022/05/16 06:42:44;;;;;;;8.55;3.40;;;16.70;89.20;;;;;;4865263;29;20032;-82
2022/05/16 06:45:14;;;;;;;6.10;2.35;;;16.80;88.70;;;;;;4865296;29;20032;-78
2022/05/16 06:47:40;;;;;;;6.68;2.95;;;16.90;88.30;;;;;;4865167;29;20033;-75
2022/05/16 06:50:07;;;;;;;6.35;2.60;;;17.10;87.80;;;;;;4848623;29;20109;-80
2022/05/16 06:52:32;;;;;;;7.53;3.25;;;17.20;87.10;;;;;;4863756;29;20033;-82
2022/05/16 06:55:00;;;;;;;7.97;3.28;;;17.30;86.60;;;;;;4863513;29;20081;-85
2022/05/16 06:57:27;;;;;;;6.18;2.55;;;17.30;86.90;;;;;;4848643;29;20053;-88
2022/05/16 06:59:53;;;;;;;6.22;3.00;;;17.40;86.40;;;;;;4855632;29;20045;-85
2022/05/16 07:02:18;;;;;;;6.20;2.65;;;17.60;86.60;;;;;;4885881;29;20079;-86
2022/05/16 07:04:44;;;;;;;6.97;3.15;;;17.70;84.20;;;;;;4885401;29;20560;-79
2022/05/16 07:07:11;;;;;;;6.30;3.35;;;17.90;83.90;;;;;;4868340;29;20630;-82
2022/05/16 07:09:40;;;;;;;8.55;3.63;;;17.90;83.70;;;;;;4885463;29;20090;-86
2022/05/16 07:12:08;;;;;;;8.55;2.80;;;18.00;83.90;;;;;;4884957;29;20095;-76
2022/05/16 07:14:34;;;;;;;7.38;3.50;;;18.20;84.10;;;;;;4869234;29;20040;-75
2022/05/16 07:17:01;;;;;;;6.35;3.33;;;18.30;81.70;;;;;;4885186;29;20738;-85
2022/05/16 07:19:31;;;;;;;9.45;3.63;;;18.50;82.00;;;;;;4868395;29;20048;-88
2022/05/16 07:21:58;;;;;;;8.60;3.55;;;18.70;82.20;;;;;;4884743;29;20020;-76
2022/05/16 07:24:24;;;;;;;7.68;4.03;;;18.80;82.50;;;;;;4867981;29;20627;-86
2022/05/16 07:29:35;;;;;;;7.75;3.88;;;19.00;81.00;;;;;;4887605;29;20488;-79
2022/05/16 07:32:01;;;;;;;8.70;4.10;;;19.10;81.20;;;;;;4884873;29;20028;-87
2022/05/16 07:34:26;;;;;;;9.07;3.88;;;19.10;79.50;;;;;;4885275;29;20704;-88
2022/05/16 07:36:52;;;;;;;8.57;3.35;;;19.20;79.40;;;;;;4884975;29;20047;-84
2022/05/16 07:39:18;;;;;;;7.25;3.28;;;19.20;78.70;;;;;;4884697;29;20108;-80
2022/05/16 07:41:44;;;;;;;8.70;3.58;;;;;;;;;;4919555;23;20067;-78
2022/05/16 07:44:10;;;;;;;8.00;3.70;;;19.80;77.00;;;;;;4904913;29;20404;-83
2022/05/16 07:46:36;;;;;;;8.73;3.38;;;20.00;76.20;;;;;;4903824;29;20034;-85
2022/05/16 07:49:02;;;;;;;6.35;3.45;;;20.10;74.80;;;;;;4904702;29;20512;-85
2022/05/16 07:51:30;;;;;;;7.95;3.13;;;20.30;74.20;;;;;;4903777;29;20035;-75
2022/05/16 07:53:56;;;;;;;6.15;3.13;;;20.50;73.40;;;;;;4903543;29;20745;-75
2022/05/16 07:56:27;;;;;;;8.43;3.38;;;20.70;71.70;;;;;;4902545;29;20020;-75
2022/05/16 08:11:59;;;;;;;4.82;2.50;;;21.20;65.30;;;;;;4903017;29;20032;-85
2022/05/16 08:14:25;;;;;;;6.97;2.92;;;21.50;63.70;;;;;;4907300;23;20020;-76
2022/05/16 08:16:50;;;;;;;7.03;3.47;;;21.50;64.20;;;;;;4865555;29;20037;-78
2022/05/16 08:19:16;;;;;;;6.53;2.75;;;21.70;64.30;;;;;;4847844;29;20379;-85
2022/05/16 08:21:43;;;;;;;8.32;3.20;;;22.00;63.90;;;;;;4865351;29;20039;-89
2022/05/16 08:24:11;;;;;;;5.93;2.90;;;22.20;62.80;;;;;;4845219;29;20193;-88
2022/05/16 08:26:37;;;;;;;8.88;3.40;;;22.30;61.90;;;;;;4842363;29;20040;-92
2022/05/16 08:29:04;;;;;;;7.10;3.70;;;22.30;61.70;;;;;;4829775;29;20046;-81
2022/05/16 08:31:30;;;;;;;5.25;2.63;;;22.60;62.50;;;;;;4847412;29;20502;-89
2022/05/16 08:34:04;;;;;;;8.55;3.55;;;22.90;60.40;;;;;;4838523;29;20033;-85
2022/05/16 08:42:04;;;;;;;5.95;2.63;;;23.30;58.50;;;;;;4848069;29;20037;-82
2022/05/16 08:44:57;;;;;;;6.88;2.53;;;23.50;56.50;;;;;;4847490;29;20665;-87
2022/05/16 08:47:47;;;;;;;4.85;2.35;;;23.50;56.50;;;;;;4846070;29;20045;-79
2022/05/16 08:50:19;;;;;;;6.60;2.40;;;23.70;55.90;;;;;;4830130;29;20060;-85
2022/05/16 08:52:58;;;;;;;6.50;3.28;;;23.90;55.20;;;;;;4841610;29;20049;-77
2022/05/16 08:55:28;;;;;;;8.05;4.05;;;23.90;55.20;;;;;;4861718;29;20041;-82
2022/05/16 08:58:19;;;;;;;8.10;3.95;;;24.10;55.30;;;;;;4948072;24;20146;-91
2022/05/16 09:00:58;;;;;;;7.15;2.60;;;24.30;55.00;;;;;;4889535;29;20028;-83
2022/05/16 09:03:36;;;;;;;7.53;2.55;;;24.60;54.30;;;;;;4906698;29;20027;-82
2022/05/16 09:06:20;;;;;;;5.68;2.58;;;24.70;53.90;;;;;;4889977;29;20508;-83
2022/05/16 09:09:01;;;;;;;6.40;2.60;;;25.00;52.90;;;;;;4909315;29;20036;-82
2022/05/16 09:11:39;;;;;;;9.80;3.70;;;25.00;53.40;;;;;;4910690;29;20032;-81
2022/05/16 09:14:34;;;;;;;6.65;2.88;;;25.00;52.20;;;;;;4906652;29;20051;-77
2022/05/16 09:17:12;;;;;;;7.47;2.75;;;25.20;51.30;;;;;;4885404;29;20432;-78
2022/05/16 09:20:16;;;;;;;6.97;2.58;;;25.20;50.70;;;;;;4886606;29;20416;-84
2022/05/16 09:23:08;;;;;;;8.20;2.63;;;25.40;50.20;;;;;;4902605;29;20027;-86
2022/05/16 09:26:05;;;;;;;5.43;2.40;;;25.50;50.70;;;;;;4806111;29;20203;-77
2022/05/16 09:28:34;;;;;;;8.85;2.80;;;25.60;50.30;;;;;;4752715;30;20151;-83
2022/05/16 09:31:11;;;;;;;6.28;2.75;;;25.90;51.90;;;;;;4752882;30;20048;-87
2022/05/16 09:33:45;;;;;;;6.20;2.90;;;26.20;51.00;;;;;;4752440;30;20047;-87
2022/05/16 09:36:14;;;;;;;6.15;2.88;;;26.30;49.30;;;;;;4752449;30;20043;-87
2022/05/16 09:38:44;;;;;;;9.82;3.10;;;26.20;49.70;;;;;;4752531;30;20112;-84
2022/05/16 09:41:13;;;;;;;6.60;2.88;;;26.50;50.40;;;;;;4752263;30;20081;-78
2022/05/16 09:43:43;;;;;;;6.05;2.63;;;26.30;50.80;;;;;;4752443;30;20046;-85
2022/05/16 09:46:24;;;;;;;8.00;2.50;;;26.30;50.70;;;;;;4751902;30;20067;-83
2022/05/16 09:49:04;;;;;;;5.68;2.63;;;26.40;50.40;;;;;;4752351;30;20044;-87
2022/05/16 09:51:30;;;;;;;5.95;2.65;;;26.60;50.50;;;;;;4751969;30;20028;-88
2022/05/16 09:54:18;;;;;;;7.90;3.50;;;26.60;50.80;;;;;;4743106;30;20118;-86
2022/05/16 09:57:16;;;;;;;6.07;2.92;;;26.70;51.20;;;;;;4769333;30;20051;-87
2022/05/16 09:59:54;;;;;;;8.32;3.10;;;26.80;51.40;;;;;;4769729;30;20165;-88
2022/05/16 10:02:25;;;;;;;7.70;2.78;;;26.80;51.00;;;;;;4783303;29;20281;-83
2022/05/16 10:05:24;;;;;;;8.77;2.75;;;26.90;50.70;;;;;;4827057;29;20108;-82
2022/05/16 10:07:58;;;;;;;7.57;3.25;;;27.00;52.60;;;;;;4805806;29;20093;-82
2022/05/16 10:10:29;;;;;;;8.65;3.22;;;27.30;50.30;;;;;;4790411;29;20070;-82
2022/05/16 10:12:57;;;;;;;7.15;2.90;;;27.30;48.60;;;;;;4877533;24;20175;-81
2022/05/16 10:15:23;;;;;;;6.25;2.50;;;27.10;48.60;;;;;;4886454;29;20088;-87
2022/05/16 10:17:55;;;;;;;6.40;3.20;;;27.20;46.90;;;;;;4869468;29;20550;-82
2022/05/16 10:20:35;;;;;;;7.13;2.83;;;27.20;45.30;;;;;;4868171;29;20041;-87
2022/05/16 10:23:05;;;;;;;5.30;2.28;;;27.30;45.80;;;;;;4866605;29;20029;-88
2022/05/16 10:25:51;;;;;;;6.35;2.75;;;27.40;46.20;;;;;;4866986;29;20085;-81
2022/05/16 10:28:32;;;;;;;5.10;1.85;;;27.60;46.50;;;;;;4865513;29;20080;-87
2022/05/16 10:34:22;;;;;;;6.80;2.53;;;29.00;46.70;;;;;;4885675;29;20076;-83
2022/05/16 10:36:51;;;;;;;5.55;2.22;;;28.00;46.60;;;;;;4885243;29;20021;-81
2022/05/16 10:39:26;;;;;;;4.85;1.98;;;28.10;46.00;;;;;;4885240;29;20029;-84
2022/05/16 10:42:10;;;;;;;5.47;2.30;;;28.30;45.80;;;;;;4868835;29;20041;-85
2022/05/16 10:44:40;;;;;;;4.68;2.17;;;28.60;46.40;;;;;;4885647;29;20516;-82
2022/05/16 10:47:23;;;;;;;5.18;2.97;;;28.60;43.70;;;;;;4869335;29;20025;-78
2022/05/16 10:50:16;;;;;;;4.40;1.77;;;28.40;41.50;;;;;;4884705;29;20652;-85
2022/05/16 10:53:02;;;;;;;4.00;1.85;;;28.40;43.00;;;;;;4867665;29;20587;-86
2022/05/16 10:55:39;;;;;;;3.75;1.50;;;28.40;42.40;;;;;;4890719;29;20033;-92
2022/05/16 10:58:39;;;;;;;3.88;1.90;;;30.20;42.30;;;;;;4880285;29;20020;-87
2022/05/16 11:01:12;;;;;;;4.82;1.90;;;28.50;41.40;;;;;;4894048;29;20079;-92
2022/05/16 11:04:00;;;;;;;3.92;1.70;;;28.80;41.40;;;;;;4879327;29;20104;-90
2022/05/16 11:06:58;;;;;;;4.22;1.40;;;29.00;40.80;;;;;;4892424;29;20720;-77
2022/05/16 11:09:30;;;;;;;3.45;1.55;;;29.10;40.80;;;;;;4890535;29;20103;-87
2022/05/16 11:12:19;;;;;;;2.53;1.33;;;28.90;39.80;;;;;;4887457;29;20598;-93
2022/05/16 11:14:51;;;;;;;3.38;1.45;;;29.60;39.10;;;;;;4887813;29;20089;-89
2022/05/16 11:17:27;;;;;;;3.50;1.30;;;29.60;36.80;;;;;;4887294;29;20085;-89
2022/05/16 11:19:59;;;;;;;3.38;1.23;;;29.60;37.60;;;;;;4870903;29;20032;-83
2022/05/16 11:22:31;;;;;;;2.38;1.40;;;29.70;37.00;;;;;;4887439;29;20081;-91
2022/05/16 11:25:35;;;;;;;3.13;1.23;;;29.80;36.60;;;;;;4887976;29;20234;-90
2022/05/16 11:28:24;;;;;;;4.65;2.00;;;29.80;36.20;;;;;;4812136;29;20099;-89
2022/05/16 11:31:16;;;;;;;3.80;1.67;;;30.00;36.10;;;;;;4812277;29;20031;-90
2022/05/16 11:34:00;;;;;;;3.35;1.42;;;30.20;37.10;;;;;;4797141;29;20777;-92
2022/05/16 11:36:39;;;;;;;3.47;1.50;;;30.60;36.00;;;;;;4809889;29;20046;-87
2022/05/16 11:39:12;;;;;;;4.07;1.95;;;30.80;36.60;;;;;;4794209;29;20896;-84
2022/05/16 11:42:15;;;;;;;3.50;1.50;;;31.40;35.20;;;;;;4808038;29;20283;-84
2022/05/16 11:45:11;;;;;;;2.10;1.25;;;31.70;33.40;;;;;;4809196;29;20057;-87
2022/05/16 11:47:48;;;;;;;3.47;1.30;;;32.00;33.00;;;;;;4808654;29;20030;-77
2022/05/16 11:50:22;;;;;;;3.33;1.10;;;32.30;31.20;;;;;;4808417;29;20026;-84
2022/05/16 11:53:07;;;;;;;4.53;1.50;;;32.20;33.50;;;;;;4807898;29;20043;-86
2022/05/16 12:01:25;;;;;;;2.17;1.25;;;33.30;32.70;;;;;;4884444;29;20035;-77
2022/05/16 12:04:14;;;;;;;3.10;1.35;;;33.60;32.70;;;;;;4870407;29;20108;-85
2022/05/16 12:06:54;;;;;;;2.45;1.20;;;34.10;31.20;;;;;;4868859;29;20033;-80
2022/05/16 12:09:23;;;;;;;3.20;1.33;;;34.40;31.40;;;;;;4883294;29;20051;-81
2022/05/16 12:11:55;;;;;;;3.20;1.33;;;34.50;31.50;;;;;;4883731;29;20041;-84
2022/05/16 12:14:37;;;;;;;3.10;1.40;;;35.00;31.40;;;;;;4866548;29;20025;-86
2022/05/16 12:17:18;;;;;;;2.72;1.35;;;35.50;31.50;;;;;;4883384;29;20208;-82
2022/05/16 12:19:48;;;;;;;2.33;1.30;;;36.00;30.60;;;;;;4883238;29;20063;-85
2022/05/16 12:22:18;;;;;;;3.95;1.60;;;35.90;28.90;;;;;;4883463;29;20548;-86
2022/05/16 12:24:53;;;;;;;4.18;1.50;;;36.30;28.80;;;;;;4883389;29;20469;-79
2022/05/16 12:27:41;;;;;;;2.35;1.30;;;36.50;29.00;;;;;;4883249;29;20033;-77
2022/05/16 12:30:15;;;;;;;3.08;1.40;;;36.60;28.90;;;;;;4867325;29;20024;-74
2022/05/16 12:32:51;;;;;;;3.80;1.30;;;36.50;28.60;;;;;;4866522;29;20093;-77
2022/05/16 12:35:38;;;;;;;2.38;1.10;;;36.40;28.00;;;;;;4866638;29;20719;-77
2022/05/16 12:38:04;;;;;;;2.38;1.58;;;36.70;28.10;;;;;;4890359;29;20039;-95
2022/05/16 12:41:13;;;;;;;6.30;1.20;;;37.30;28.00;;;;;;4908704;29;20012;-79
2022/05/16 12:44:06;;;;;;;3.65;1.30;;;37.80;27.10;;;;;;4906914;29;20028;-77
2022/05/16 12:47:04;;;;;;;2.20;1.00;;;38.20;27.30;;;;;;4906036;29;20028;-82
2022/05/16 12:49:49;;;;;;;2.75;1.20;;;38.20;27.00;;;;;;4885724;29;20040;-76
2022/05/16 12:53:00;;;;;;;4.93;1.42;;;38.40;27.90;;;;;;4903343;29;20120;-82
2022/05/16 12:55:50;;;;;;;2.95;1.25;;;37.80;27.60;;;;;;4810119;29;20067;-80
2022/05/16 12:58:27;;;;;;;2.50;1.23;;;37.40;28.20;;;;;;4824650;29;20689;-85
2022/05/16 13:01:10;;;;;;;3.30;1.30;;;37.20;28.10;;;;;;4825908;29;20060;-84
2022/05/16 13:03:44;;;;;;;2.63;1.13;;;37.30;28.20;;;;;;4826761;29;20672;-85
2022/05/16 13:06:31;;;;;;;2.00;1.08;;;37.20;28.20;;;;;;4824847;29;20042;-84
2022/05/16 13:09:15;;;;;;;4.10;1.40;;;37.40;28.00;;;;;;4810534;29;20042;-86
2022/05/16 13:12:05;;;;;;;2.90;1.23;;;37.80;26.30;;;;;;4807124;29;20133;-85
2022/05/16 13:14:44;;;;;;;1.60;1.00;;;37.30;27.70;;;;;;4807241;29;20039;-85
2022/05/16 13:17:26;;;;;;;1.63;0.80;;;37.70;26.30;;;;;;4806582;29;20038;-82
2022/05/16 13:19:54;;;;;;;1.40;0.95;;;38.30;26.60;;;;;;4806291;29;20094;-85
2022/05/16 13:22:22;;;;;;;8.23;1.52;;;38.80;26.60;;;;;;4791110;29;20030;-82
2022/05/16 13:24:55;;;;;;;3.55;1.25;;;39.00;26.90;;;;;;4806286;29;20034;-82
2022/05/16 13:30:22;;;;;;;2.60;1.30;;;38.90;27.60;;;;;;4806777;29;20072;-81
2022/05/16 13:32:48;;;;;;;3.22;1.30;;;39.40;27.10;;;;;;4864043;29;20041;-81
2022/05/16 13:35:35;;;;;;;2.20;1.27;;;39.20;27.40;;;;;;4886085;29;20021;-93
2022/05/16 13:38:07;;;;;;;3.67;1.27;;;39.00;27.60;;;;;;4887025;29;20020;-92
2022/05/16 13:40:42;;;;;;;1.20;0.90;;;39.60;28.00;;;;;;4885443;29;20075;-85
2022/05/16 13:43:26;;;;;;;2.05;1.10;;;39.30;27.70;;;;;;4883660;29;20040;-87
2022/05/16 13:46:00;;;;;;;2.65;1.25;;;39.70;27.20;;;;;;4883509;29;20214;-82
2022/05/16 13:48:25;;;;;;;1.73;1.20;;;39.80;27.30;;;;;;4867880;29;20047;-77
2022/05/16 13:50:52;;;;;;;1.88;1.17;;;39.50;27.50;;;;;;4884003;29;20013;-78
2022/05/16 13:53:20;;;;;;;3.03;1.25;;;39.40;27.40;;;;;;4866391;29;20040;-84
2022/05/16 13:55:50;;;;;;;4.65;1.40;;;39.50;27.00;;;;;;4892591;29;20020;-77
2022/05/16 14:11:19;;;;;;;2.85;1.17;;;38.50;28.30;;;;;;5200714;23;20252;-85
2022/05/16 14:13:51;;;;;;;4.03;1.35;;;39.10;29.10;;;;;;4896372;29;20025;-82
2022/05/16 14:16:25;;;;;;;2.97;1.40;;;39.40;28.30;;;;;;4875429;29;20517;-84
2022/05/16 14:19:01;;;;;;;2.97;1.52;;;39.20;28.60;;;;;;4871138;29;20681;-79
2022/05/16 14:21:44;;;;;;;3.30;1.42;;;39.10;28.70;;;;;;4886932;29;20059;-85
2022/05/16 14:24:11;;;;;;;4.78;1.60;;;38.80;29.00;;;;;;4886555;29;20108;-83
2022/05/16 14:26:40;;;;;;;2.38;1.25;;;39.10;29.30;;;;;;4886069;29;20013;-80
2022/05/16 14:29:22;;;;;;;2.78;1.40;;;39.40;28.20;;;;;;4885743;29;20131;-79
2022/05/16 14:32:02;;;;;;;2.40;1.40;;;39.20;28.00;;;;;;4885321;29;20086;-84
2022/05/16 14:34:52;;;;;;;4.22;1.45;;;38.50;28.70;;;;;;4885416;29;20017;-85
2022/05/16 14:37:22;;;;;;;3.65;1.50;;;37.90;29.00;;;;;;4883490;29;20021;-81
2022/05/16 14:40:00;;;;;;;2.97;1.50;;;37.70;30.10;;;;;;4884964;29;20036;-84
2022/05/16 14:42:27;;;;;;;3.53;1.77;;;37.80;29.40;;;;;;4868560;29;20108;-79
2022/05/16 14:45:13;;;;;;;3.45;1.40;;;37.80;28.90;;;;;;4885611;29;20023;-85
2022/05/16 14:47:44;;;;;;;3.53;1.55;;;38.00;29.00;;;;;;4868218;29;20045;-85
2022/05/16 14:50:37;;;;;;;3.58;1.50;;;37.70;29.10;;;;;;4884294;29;20117;-81
2022/05/16 14:53:13;;;;;;;3.47;1.48;;;37.60;29.30;;;;;;4879760;29;20158;-86
2022/05/16 14:55:48;;;;;;;3.40;1.65;;;38.10;29.50;;;;;;4884829;29;20766;-86
2022/05/16 14:58:14;;;;;;;2.55;1.50;;;38.10;29.40;;;;;;4900592;29;20059;-83
2022/05/16 15:06:11;;;;;;;3.05;1.65;;;38.20;29.80;;;;;;4903235;29;20153;-83
2022/05/16 15:08:41;;;;;;;5.38;1.98;;;38.10;30.00;;;;;;4885949;29;20046;-82
2022/05/16 15:11:07;;;;;;;2.63;1.40;;;38.10;30.00;;;;;;4902536;29;20048;-81
2022/05/16 15:13:33;;;;;;;5.45;2.22;;;38.00;30.00;;;;;;4903124;29;20088;-77
2022/05/16 15:15:59;;;;;;;3.85;1.58;;;38.10;30.00;;;;;;4902680;29;20180;-81
2022/05/16 15:18:28;;;;;;;4.05;1.63;;;38.10;30.30;;;;;;4903398;29;20641;-82
2022/05/16 15:20:54;;;;;;;3.60;1.60;;;37.60;30.30;;;;;;4903088;29;20123;-78
2022/05/16 15:23:21;;;;;;;4.20;1.50;;;37.40;30.70;;;;;;4904442;29;20074;-85
2022/05/16 15:25:52;;;;;;;3.15;1.77;;;37.00;30.60;;;;;;4904868;29;20020;-81
2022/05/16 15:28:18;;;;;;;3.80;1.60;;;37.30;30.90;;;;;;4886928;29;20720;-86
2022/05/16 15:30:44;;;;;;;3.03;1.50;;;37.60;30.40;;;;;;4886116;29;20067;-79
2022/05/16 15:33:11;;;;;;;3.78;1.80;;;37.30;30.40;;;;;;4903096;29;20016;-81
2022/05/16 15:35:40;;;;;;;2.70;1.55;;;37.10;30.50;;;;;;4903092;29;20012;-81
2022/05/16 15:38:07;;;;;;;3.45;1.65;;;36.80;31.10;;;;;;4902889;29;20099;-81
2022/05/16 15:40:36;;;;;;;3.85;1.77;;;36.30;31.10;;;;;;4902435;29;20044;-83
2022/05/16 15:43:03;;;;;;;7.00;1.90;;;36.50;30.80;;;;;;4886582;29;20759;-79
2022/05/16 15:45:29;;;;;;;4.10;2.05;;;35.90;34.20;;;;;;4902770;29;20024;-84
2022/05/16 15:47:54;;;;;;;4.60;2.05;;;36.30;36.20;;;;;;4902758;29;20028;-73
2022/05/16 15:50:23;;;;;;;6.25;2.20;;;35.10;36.30;;;;;;4888353;29;20037;-88
2022/05/16 15:52:49;;;;;;;6.35;2.50;;;34.30;37.50;;;;;;4886303;29;20091;-82
2022/05/16 15:55:24;;;;;;;3.58;1.83;;;33.70;38.50;;;;;;4885651;29;20033;-82
2022/05/16 15:57:50;;;;;;;4.97;2.47;;;33.00;39.30;;;;;;4867290;29;20041;-80
2022/05/16 16:00:22;;;;;;;6.85;2.67;;;31.90;39.80;;;;;;4885305;29;20027;-84
2022/05/16 16:02:52;;;;;;;5.57;2.45;;;31.70;40.70;;;;;;4885223;29;20052;-80
2022/05/16 16:10:51;;;;;;;5.45;2.20;;;29.20;44.50;;;;;;4884343;29;20062;-85
2022/05/16 16:13:19;;;;;;;4.30;2.13;;;28.60;45.40;;;;;;4867814;29;20775;-86
2022/05/16 16:15:46;;;;;;;5.88;2.28;;;28.40;45.60;;;;;;4884583;29;20077;-86
2022/05/16 16:18:13;;;;;;;7.90;2.42;;;28.10;47.00;;;;;;4883328;29;20020;-85
2022/05/16 16:20:40;;;;;;;8.73;2.55;;;28.00;46.80;;;;;;4883143;29;20040;-78
2022/05/16 16:23:06;;;;;;;4.32;2.08;;;27.70;47.20;;;;;;4883616;29;20675;-84
2022/05/16 16:25:34;;;;;;;7.57;2.20;;;27.60;47.60;;;;;;4883591;29;20033;-84
2022/05/16 16:28:06;;;;;;;6.15;2.22;;;27.40;48.00;;;;;;4883546;29;20032;-80
2022/05/16 16:30:33;;;;;;;5.90;2.42;;;27.30;48.20;;;;;;4889433;29;20053;-79
2022/05/16 16:33:00;;;;;;;6.60;2.55;;;27.00;48.70;;;;;;4885025;29;20035;-80
2022/05/16 16:35:26;;;;;;;6.75;2.58;;;26.80;49.00;;;;;;4883846;29;20016;-83
2022/05/16 16:37:52;;;;;;;4.72;2.40;;;26.60;49.70;;;;;;4883625;29;20021;-80
2022/05/16 16:40:17;;;;;;;6.47;2.63;;;26.50;49.70;;;;;;4883600;29;20028;-83
2022/05/16 16:42:43;;;;;;;8.00;2.63;;;26.30;50.20;;;;;;4884115;29;20067;-75
2022/05/16 16:45:12;;;;;;;3.75;1.77;;;26.20;50.70;;;;;;4883555;29;20058;-76
2022/05/16 16:47:40;;;;;;;6.10;2.60;;;26.20;50.70;;;;;;4866666;29;20044;-84